Time,TemperatureF,DewpointF,PressureIn,WindDirection,WindDirectionDegrees,WindSpeedMPH,WindSpeedGustMPH,Humidity,HourlyPrecipIn,Conditions,Clouds,dailyrainin,SoftwareType,DateUTC
2013-03-09 00:00:00,39.0,29.2,30.23,NNE,15,3.0,5.8,68,0.00,,CLR,0.00,VWS V14.00,2013-03-09 05:00:00,
2013-03-09 00:05:00,39.6,29.8,30.23,North,359,0.0,5.0,68,0.00,,CLR,0.00,VWS V14.00,2013-03-09 05:05:00,
2013-03-09 00:10:00,39.0,29.2,30.23,North,359,0.0,5.0,68,0.00,,CLR,0.00,VWS V14.00,2013-03-09 05:10:00,
2013-03-09 00:15:00,38.7,29.1,30.23,North,359,0.0,5.0,68,0.00,,CLR,0.00,VWS V14.00,2013-03-09 05:15:00,
2013-03-09 00:20:00,39.5,30.0,30.23,North,359,0.0,0.0,69,0.00,,CLR,0.00,VWS V14.00,2013-03-09 05:20:00,
2013-03-09 00:25:00,39.3,30.0,30.23,North,359,0.0,0.0,69,0.00,,CLR,0.00,VWS V14.00,2013-03-09 05:25:00,
2013-03-09 00:30:00,39.1,30.0,30.23,North,359,0.0,0.0,70,0.00,,CLR,0.00,VWS V14.00,2013-03-09 05:30:00,
2013-03-09 00:35:00,38.7,29.7,30.23,North,359,0.0,0.0,70,0.00,,CLR,0.00,VWS V14.00,2013-03-09 05:35:00,
2013-03-09 00:40:00,38.2,29.4,30.23,North,359,0.0,0.0,70,0.00,,CLR,0.00,VWS V14.00,2013-03-09 05:40:00,
2013-03-09 00:45:00,38.0,29.5,30.24,North,359,0.0,0.0,71,0.00,,CLR,0.00,VWS V14.00,2013-03-09 05:45:00,
2013-03-09 00:50:00,37.9,29.7,30.24,North,359,0.0,0.0,72,0.00,,CLR,0.00,VWS V14.00,2013-03-09 05:50:00,
2013-03-09 00:55:00,37.7,30.0,30.24,North,359,0.0,0.0,74,0.00,,CLR,0.00,VWS V14.00,2013-03-09 05:55:00,
2013-03-09 01:00:00,36.2,28.9,30.24,North,359,0.0,0.0,74,0.00,,CLR,0.00,VWS V14.00,2013-03-09 06:00:00,
2013-03-09 01:05:00,35.2,28.3,30.24,North,359,0.0,0.0,76,0.00,,CLR,0.00,VWS V14.00,2013-03-09 06:05:00,
2013-03-09 01:10:00,33.4,27.0,30.24,North,359,0.0,0.0,77,0.00,,CLR,0.00,VWS V14.00,2013-03-09 06:10:00,
2013-03-09 01:15:00,33.6,27.4,30.24,North,359,0.0,0.0,78,0.00,,CLR,0.00,VWS V14.00,2013-03-09 06:15:00,
2013-03-09 01:20:00,33.0,26.6,30.23,North,11,0.0,3.0,77,0.00,,CLR,0.00,VWS V14.00,2013-03-09 06:20:00,
2013-03-09 01:25:00,33.5,27.1,30.24,North,11,0.0,3.0,77,0.00,,CLR,0.00,VWS V14.00,2013-03-09 06:25:00,
2013-03-09 01:30:00,34.8,28.2,30.24,North,11,0.0,3.0,77,0.00,,CLR,0.00,VWS V14.00,2013-03-09 06:30:00,
2013-03-09 01:35:00,35.0,28.5,30.23,North,11,0.0,0.0,77,0.00,,CLR,0.00,VWS V14.00,2013-03-09 06:35:00,
2013-03-09 01:40:00,35.2,28.9,30.23,North,11,0.0,0.0,78,0.00,,CLR,0.00,VWS V14.00,2013-03-09 06:40:00,
2013-03-09 01:45:00,33.9,28.0,30.23,North,11,0.0,0.0,79,0.00,,CLR,0.00,VWS V14.00,2013-03-09 06:45:00,
2013-03-09 01:50:00,30.9,25.4,30.23,North,11,0.0,0.0,80,0.00,,CLR,0.00,VWS V14.00,2013-03-09 06:50:00,
2013-03-09 01:55:00,30.9,25.8,30.22,North,11,0.0,0.0,81,0.00,,CLR,0.00,VWS V14.00,2013-03-09 06:55:00,
2013-03-09 02:00:00,32.8,28.2,30.22,North,11,0.0,0.0,83,0.00,,CLR,0.00,VWS V14.00,2013-03-09 07:00:00,
2013-03-09 02:05:00,32.6,27.9,30.22,North,11,0.0,0.0,83,0.00,,CLR,0.00,VWS V14.00,2013-03-09 07:05:00,
2013-03-09 02:10:00,31.7,27.1,30.21,North,11,0.0,0.0,83,0.00,,CLR,0.00,VWS V14.00,2013-03-09 07:10:00,
2013-03-09 02:15:00,32.1,27.4,30.21,North,11,0.0,0.0,82,0.00,,CLR,0.00,VWS V14.00,2013-03-09 07:15:00,
2013-03-09 02:20:00,29.2,24.3,30.21,North,11,0.0,0.0,82,0.00,,CLR,0.00,VWS V14.00,2013-03-09 07:20:00,
2013-03-09 02:25:00,31.7,26.8,30.21,North,11,0.0,0.0,82,0.00,,CLR,0.00,VWS V14.00,2013-03-09 07:25:00,
2013-03-09 02:30:00,31.5,26.7,30.21,NNE,24,3.4,5.7,82,0.00,,CLR,0.00,VWS V14.00,2013-03-09 07:30:00,
2013-03-09 02:35:00,31.2,26.4,30.20,NNE,13,0.0,0.0,82,0.00,,CLR,0.00,VWS V14.00,2013-03-09 07:35:00,
2013-03-09 02:40:00,32.7,27.7,30.20,NNE,24,0.0,4.3,82,0.00,,CLR,0.00,VWS V14.00,2013-03-09 07:40:00,
2013-03-09 02:45:00,31.8,26.7,30.20,NNE,24,0.0,4.3,81,0.00,,CLR,0.00,VWS V14.00,2013-03-09 07:45:00,
2013-03-09 02:50:00,31.7,26.4,30.20,NNE,24,0.0,0.0,81,0.00,,CLR,0.00,VWS V14.00,2013-03-09 07:50:00,
2013-03-09 02:55:00,31.7,26.3,30.20,NNE,24,0.0,0.0,80,0.00,,CLR,0.00,VWS V14.00,2013-03-09 07:55:00,
2013-03-09 03:00:00,31.5,26.3,30.20,NNE,24,0.0,0.0,81,0.00,,CLR,0.00,VWS V14.00,2013-03-09 08:00:00,
2013-03-09 03:05:00,31.9,26.9,30.20,NNE,24,0.0,0.0,82,0.00,,CLR,0.00,VWS V14.00,2013-03-09 08:05:00,
2013-03-09 03:10:00,31.2,26.6,30.20,NNE,24,0.0,0.0,83,0.00,,CLR,0.00,VWS V14.00,2013-03-09 08:10:00,
2013-03-09 03:15:00,30.4,26.2,30.20,NNE,24,4.4,4.8,84,0.00,,CLR,0.00,VWS V14.00,2013-03-09 08:15:00,
2013-03-09 03:20:00,30.5,26.4,30.20,North,8,0.0,5.0,85,0.00,,CLR,0.00,VWS V14.00,2013-03-09 08:20:00,
2013-03-09 03:25:00,30.7,26.5,30.20,NNE,22,0.0,5.0,84,0.00,,CLR,0.00,VWS V14.00,2013-03-09 08:25:00,
2013-03-09 03:30:00,31.5,27.4,30.20,NNE,18,3.3,5.0,84,0.00,,CLR,0.00,VWS V14.00,2013-03-09 08:30:00,
2013-03-09 03:35:00,32.3,27.9,30.20,NNE,18,0.0,3.3,84,0.00,,CLR,0.00,VWS V14.00,2013-03-09 08:35:00,
2013-03-09 03:40:00,32.6,28.1,30.20,NNE,18,0.0,3.3,83,0.00,,CLR,0.00,VWS V14.00,2013-03-09 08:40:00,
2013-03-09 03:45:00,32.1,27.6,30.20,NNE,18,0.0,3.3,83,0.00,,CLR,0.00,VWS V14.00,2013-03-09 08:45:00,
2013-03-09 03:50:00,31.8,27.4,30.20,NNE,18,0.0,0.0,83,0.00,,CLR,0.00,VWS V14.00,2013-03-09 08:50:00,
2013-03-09 03:55:00,31.7,27.2,30.20,NNE,18,0.0,0.0,83,0.00,,CLR,0.00,VWS V14.00,2013-03-09 08:55:00,
2013-03-09 04:00:00,30.9,26.5,30.20,NNE,18,0.0,0.0,83,0.00,,CLR,0.00,VWS V14.00,2013-03-09 09:00:00,
2013-03-09 04:05:00,30.9,26.6,30.20,NNE,18,0.0,0.0,84,0.00,,CLR,0.00,VWS V14.00,2013-03-09 09:05:00,
2013-03-09 04:10:00,30.4,26.7,30.21,North,7,0.0,3.4,86,0.00,,CLR,0.00,VWS V14.00,2013-03-09 09:10:00,
2013-03-09 04:15:00,31.0,27.5,30.21,North,7,0.0,3.4,86,0.00,,CLR,0.00,VWS V14.00,2013-03-09 09:15:00,
2013-03-09 04:20:00,30.6,27.1,30.21,North,7,0.0,0.0,87,0.00,,CLR,0.00,VWS V14.00,2013-03-09 09:20:00,
2013-03-09 04:25:00,30.9,27.3,30.21,North,7,0.0,0.0,86,0.00,,CLR,0.00,VWS V14.00,2013-03-09 09:25:00,
2013-03-09 04:30:00,30.0,26.5,30.21,North,7,0.0,0.0,87,0.00,,CLR,0.00,VWS V14.00,2013-03-09 09:30:00,
2013-03-09 04:35:00,29.8,26.5,30.21,North,7,0.0,0.0,87,0.00,,CLR,0.00,VWS V14.00,2013-03-09 09:35:00,
2013-03-09 04:40:00,30.8,27.7,30.21,North,7,0.0,0.0,88,0.00,,CLR,0.00,VWS V14.00,2013-03-09 09:40:00,
2013-03-09 04:45:00,29.9,27.0,30.21,North,7,0.0,0.0,89,0.00,,CLR,0.00,VWS V14.00,2013-03-09 09:45:00,
2013-03-09 04:50:00,30.8,27.6,30.21,North,7,0.0,0.0,88,0.00,,CLR,0.00,VWS V14.00,2013-03-09 09:50:00,
2013-03-09 04:55:00,30.1,27.0,30.22,North,7,0.0,0.0,88,0.00,,CLR,0.00,VWS V14.00,2013-03-09 09:55:00,
2013-03-09 05:00:00,30.4,27.6,30.22,North,7,0.0,0.0,89,0.00,,CLR,0.00,VWS V14.00,2013-03-09 10:00:00,
2013-03-09 05:05:00,29.8,27.2,30.22,North,7,0.0,0.0,90,0.00,,CLR,0.00,VWS V14.00,2013-03-09 10:05:00,
2013-03-09 05:10:00,28.8,26.4,30.22,North,7,0.0,0.0,91,0.00,,CLR,0.00,VWS V14.00,2013-03-09 10:10:00,
2013-03-09 05:15:00,29.1,26.9,30.22,North,7,0.0,0.0,91,0.00,,CLR,0.00,VWS V14.00,2013-03-09 10:15:00,
2013-03-09 05:20:00,29.0,26.7,30.22,North,7,0.0,0.0,91,0.00,,CLR,0.00,VWS V14.00,2013-03-09 10:20:00,
2013-03-09 05:25:00,29.8,27.5,30.22,North,7,0.0,0.0,91,0.00,,CLR,0.00,VWS V14.00,2013-03-09 10:25:00,
2013-03-09 05:30:00,29.6,27.4,30.22,North,7,0.0,0.0,91,0.00,,CLR,0.00,VWS V14.00,2013-03-09 10:30:00,
2013-03-09 05:35:00,30.2,27.8,30.22,North,7,0.0,3.3,91,0.00,,CLR,0.00,VWS V14.00,2013-03-09 10:35:00,
2013-03-09 05:40:00,30.4,28.0,30.22,North,7,0.0,3.3,91,0.00,,CLR,0.00,VWS V14.00,2013-03-09 10:40:00,
2013-03-09 05:45:00,30.7,28.1,30.22,North,7,0.0,3.3,90,0.00,,CLR,0.00,VWS V14.00,2013-03-09 10:45:00,
2013-03-09 05:50:00,30.0,27.4,30.22,NNE,27,4.8,4.9,90,0.00,,CLR,0.00,VWS V14.00,2013-03-09 10:50:00,
2013-03-09 05:55:00,30.8,28.2,30.22,NNE,13,0.0,4.9,90,0.00,,CLR,0.00,VWS V14.00,2013-03-09 10:55:00,
2013-03-09 06:00:00,30.4,27.7,30.22,North,357,3.0,4.9,90,0.00,,CLR,0.00,VWS V14.00,2013-03-09 11:00:00,
2013-03-09 06:05:00,30.2,27.6,30.23,North,357,0.0,0.0,90,0.00,,CLR,0.00,VWS V14.00,2013-03-09 11:05:00,
2013-03-09 06:10:00,29.8,27.3,30.23,NNW,340,0.0,3.0,90,0.00,,CLR,0.00,VWS V14.00,2013-03-09 11:10:00,
2013-03-09 06:15:00,30.7,28.2,30.23,NNW,340,0.0,3.0,90,0.00,,CLR,0.00,VWS V14.00,2013-03-09 11:15:00,
2013-03-09 06:20:00,30.6,28.1,30.23,NNW,340,0.0,0.0,90,0.00,,CLR,0.00,VWS V14.00,2013-03-09 11:20:00,
2013-03-09 06:25:00,29.7,27.4,30.23,NNW,340,0.0,0.0,91,0.00,,CLR,0.00,VWS V14.00,2013-03-09 11:25:00,
2013-03-09 06:30:00,29.3,27.1,30.23,NNW,340,0.0,0.0,91,0.00,,CLR,0.00,VWS V14.00,2013-03-09 11:30:00,
2013-03-09 06:35:00,29.2,27.1,30.23,NNW,340,0.0,0.0,92,0.00,,CLR,0.00,VWS V14.00,2013-03-09 11:35:00,
2013-03-09 06:40:00,29.5,27.3,30.24,NNW,340,0.0,0.0,91,0.00,,CLR,0.00,VWS V14.00,2013-03-09 11:40:00,
2013-03-09 06:45:00,29.9,27.7,30.24,NNW,340,0.0,0.0,91,0.00,,CLR,0.00,VWS V14.00,2013-03-09 11:45:00,
2013-03-09 06:50:00,30.2,27.9,30.24,NNW,340,0.0,0.0,91,0.00,,CLR,0.00,VWS V14.00,2013-03-09 11:50:00,
2013-03-09 06:55:00,29.4,27.0,30.24,North,349,0.0,5.2,91,0.00,,CLR,0.00,VWS V14.00,2013-03-09 11:55:00,
2013-03-09 07:00:00,29.8,27.3,30.24,North,349,0.0,5.2,90,0.00,,CLR,0.00,VWS V14.00,2013-03-09 12:00:00,
2013-03-09 07:05:00,30.1,27.7,30.24,North,349,0.0,0.0,91,0.00,,CLR,0.00,VWS V14.00,2013-03-09 12:05:00,
2013-03-09 07:10:00,30.1,27.6,30.24,North,349,0.0,0.0,90,0.00,,CLR,0.00,VWS V14.00,2013-03-09 12:10:00,
2013-03-09 07:15:00,30.3,27.8,30.24,North,349,0.0,0.0,90,0.00,,CLR,0.00,VWS V14.00,2013-03-09 12:15:00,
2013-03-09 07:20:00,30.9,28.4,30.24,North,349,0.0,0.0,90,0.00,,CLR,0.00,VWS V14.00,2013-03-09 12:20:00,
2013-03-09 07:25:00,29.2,26.7,30.25,North,349,0.0,0.0,90,0.00,,CLR,0.00,VWS V14.00,2013-03-09 12:25:00,
2013-03-09 07:30:00,31.3,28.5,30.25,North,349,0.0,0.0,89,0.00,,CLR,0.00,VWS V14.00,2013-03-09 12:30:00,
2013-03-09 07:35:00,32.1,29.0,30.25,North,349,0.0,0.0,88,0.00,,CLR,0.00,VWS V14.00,2013-03-09 12:35:00,
2013-03-09 07:40:00,31.6,28.2,30.25,NNW,345,3.3,3.4,87,0.00,,CLR,0.00,VWS V14.00,2013-03-09 12:40:00,
2013-03-09 07:45:00,32.8,29.1,30.26,North,356,3.2,4.7,86,0.00,,CLR,0.00,VWS V14.00,2013-03-09 12:45:00,
2013-03-09 07:50:00,33.9,30.0,30.26,NNE,13,2.7,4.8,85,0.00,,CLR,0.00,VWS V14.00,2013-03-09 12:50:00,
2013-03-09 07:55:00,35.0,30.8,30.26,North,11,0.0,4.9,84,0.00,,CLR,0.00,VWS V14.00,2013-03-09 12:55:00,
2013-03-09 08:00:00,36.0,31.6,30.26,North,349,4.9,5.6,84,0.00,,CLR,0.00,VWS V14.00,2013-03-09 13:00:00,
2013-03-09 08:05:00,32.6,28.0,30.26,NNE,24,0.0,4.3,83,0.00,,CLR,0.00,VWS V14.00,2013-03-09 13:05:00,
2013-03-09 08:10:00,31.2,26.2,30.26,NNE,17,4.7,6.0,81,0.00,,CLR,0.00,VWS V14.00,2013-03-09 13:10:00,
2013-03-09 08:15:00,31.3,25.7,30.26,NE,35,2.4,6.0,80,0.00,,CLR,0.00,VWS V14.00,2013-03-09 13:15:00,
2013-03-09 08:20:00,36.3,30.3,30.26,North,356,3.4,5.3,79,0.00,,CLR,0.00,VWS V14.00,2013-03-09 13:20:00,
2013-03-09 08:25:00,36.7,30.1,30.26,NNE,25,0.0,6.1,77,0.00,,CLR,0.00,VWS V14.00,2013-03-09 13:25:00,
2013-03-09 08:30:00,32.7,25.8,30.27,North,3,3.2,6.1,75,0.00,,CLR,0.00,VWS V14.00,2013-03-09 13:30:00,
2013-03-09 08:35:00,32.6,24.9,30.26,North,359,7.6,7.7,73,0.00,,CLR,0.00,VWS V14.00,2013-03-09 13:35:00,
2013-03-09 08:40:00,30.0,22.0,30.26,NNE,24,5.4,8.4,72,0.00,,CLR,0.00,VWS V14.00,2013-03-09 13:40:00,
2013-03-09 08:45:00,41.3,32.5,30.27,NE,52,5.0,8.4,71,0.00,,CLR,0.00,VWS V14.00,2013-03-09 13:45:00,
2013-03-09 08:50:00,41.7,32.5,30.27,NNE,15,4.7,7.6,70,0.00,,CLR,0.00,VWS V14.00,2013-03-09 13:50:00,
2013-03-09 08:55:00,42.2,32.7,30.27,North,8,2.7,7.6,69,0.00,,CLR,0.00,VWS V14.00,2013-03-09 13:55:00,
2013-03-09 09:00:00,42.5,32.7,30.27,NNE,30,4.5,7.6,68,0.00,,CLR,0.00,VWS V14.00,2013-03-09 14:00:00,
2013-03-09 09:05:00,43.0,32.7,30.27,NNE,25,6.6,7.6,67,0.00,,CLR,0.00,VWS V14.00,2013-03-09 14:05:00,
2013-03-09 09:10:00,43.3,32.6,30.27,NNE,14,0.0,7.6,66,0.00,,CLR,0.00,VWS V14.00,2013-03-09 14:10:00,
2013-03-09 09:15:00,43.7,32.4,30.27,NNE,28,6.8,8.5,64,0.00,,CLR,0.00,VWS V14.00,2013-03-09 14:15:00,
2013-03-09 09:20:00,39.7,28.3,30.27,North,3,4.3,7.0,63,0.00,,CLR,0.00,VWS V14.00,2013-03-09 14:20:00,
2013-03-09 09:25:00,39.0,27.2,30.28,North,8,5.0,7.9,62,0.00,,CLR,0.00,VWS V14.00,2013-03-09 14:25:00,
2013-03-09 09:30:00,41.2,29.0,30.27,NNE,25,7.0,7.9,62,0.00,,CLR,0.00,VWS V14.00,2013-03-09 14:30:00,
2013-03-09 09:35:00,44.4,32.0,30.27,North,8,0.0,6.0,61,0.00,,CLR,0.00,VWS V14.00,2013-03-09 14:35:00,
2013-03-09 09:40:00,44.8,31.2,30.27,East,89,11.2,11.2,59,0.00,,CLR,0.00,VWS V14.00,2013-03-09 14:40:00,
2013-03-09 09:45:00,45.1,30.8,30.27,NNE,32,0.0,11.2,57,0.00,,CLR,0.00,VWS V14.00,2013-03-09 14:45:00,
2013-03-09 09:50:00,45.5,30.9,30.27,North,11,0.0,6.7,56,0.00,,CLR,0.00,VWS V14.00,2013-03-09 14:50:00,
2013-03-09 09:55:00,44.9,29.7,30.28,ENE,77,4.2,7.5,55,0.00,,CLR,0.00,VWS V14.00,2013-03-09 14:55:00,
2013-03-09 10:00:00,44.5,29.0,30.28,NE,34,6.2,9.7,54,0.00,,CLR,0.00,VWS V14.00,2013-03-09 15:00:00,
2013-03-09 10:05:00,45.7,30.2,30.28,East,89,0.0,7.5,54,0.00,,CLR,0.00,VWS V14.00,2013-03-09 15:05:00,
2013-03-09 10:10:00,46.0,29.9,30.27,NNE,24,6.7,7.8,53,0.00,,CLR,0.00,VWS V14.00,2013-03-09 15:10:00,
2013-03-09 10:15:00,46.0,29.9,30.28,NNE,32,0.0,8.8,53,0.00,,CLR,0.00,VWS V14.00,2013-03-09 15:15:00,
2013-03-09 10:20:00,46.2,30.1,30.28,NNE,17,3.3,7.1,53,0.00,,CLR,0.00,VWS V14.00,2013-03-09 15:20:00,
2013-03-09 10:25:00,46.3,29.9,30.28,NNE,14,0.0,7.5,52,0.00,,CLR,0.00,VWS V14.00,2013-03-09 15:25:00,
2013-03-09 10:30:00,47.0,30.0,30.27,East,83,0.0,7.5,51,0.00,,CLR,0.00,VWS V14.00,2013-03-09 15:30:00,
2013-03-09 10:35:00,47.5,30.6,30.27,ENE,60,3.3,6.6,52,0.00,,CLR,0.00,VWS V14.00,2013-03-09 15:35:00,
2013-03-09 10:40:00,47.2,29.6,30.27,East,94,3.2,8.4,50,0.00,,CLR,0.00,VWS V14.00,2013-03-09 15:40:00,
2013-03-09 10:45:00,47.5,29.9,30.27,ENE,70,5.1,8.4,50,0.00,,CLR,0.00,VWS V14.00,2013-03-09 15:45:00,
2013-03-09 10:50:00,43.8,26.5,30.27,North,8,2.9,7.3,50,0.00,,CLR,0.00,VWS V14.00,2013-03-09 15:50:00,
2013-03-09 10:55:00,43.6,26.9,30.27,North,8,0.0,9.1,52,0.00,,CLR,0.00,VWS V14.00,2013-03-09 15:55:00,
2013-03-09 11:00:00,40.8,23.4,30.27,NNW,340,0.0,9.1,50,0.00,,CLR,0.00,VWS V14.00,2013-03-09 16:00:00,
2013-03-09 11:05:00,49.1,30.9,30.27,East,96,0.0,7.9,49,0.00,,CLR,0.00,VWS V14.00,2013-03-09 16:05:00,
2013-03-09 11:10:00,49.3,31.2,30.27,North,354,5.8,7.9,49,0.00,,CLR,0.00,VWS V14.00,2013-03-09 16:10:00,
2013-03-09 11:15:00,49.2,30.8,30.27,NNE,24,0.0,7.9,49,0.00,,CLR,0.00,VWS V14.00,2013-03-09 16:15:00,
2013-03-09 11:20:00,49.3,31.6,30.26,NNE,24,0.0,2.4,50,0.00,,CLR,0.00,VWS V14.00,2013-03-09 16:20:00,
2013-03-09 11:25:00,48.3,29.6,30.27,NE,35,0.0,7.1,48,0.00,,CLR,0.00,VWS V14.00,2013-03-09 16:25:00,
2013-03-09 11:30:00,48.1,29.9,30.26,SW,232,0.0,7.1,49,0.00,,CLR,0.00,VWS V14.00,2013-03-09 16:30:00,
2013-03-09 11:35:00,48.6,29.8,30.26,ENE,60,0.0,4.5,48,0.00,,CLR,0.00,VWS V14.00,2013-03-09 16:35:00,
2013-03-09 11:40:00,47.7,28.7,30.26,NE,34,0.0,6.5,47,0.00,,CLR,0.00,VWS V14.00,2013-03-09 16:40:00,
2013-03-09 11:45:00,49.3,29.8,30.26,NE,34,2.1,11.1,47,0.00,,CLR,0.00,VWS V14.00,2013-03-09 16:45:00,
2013-03-09 11:50:00,49.3,29.5,30.26,SSW,212,0.0,7.5,46,0.00,,CLR,0.00,VWS V14.00,2013-03-09 16:50:00,
2013-03-09 11:55:00,45.3,25.8,30.26,North,11,0.0,7.5,46,0.00,,CLR,0.00,VWS V14.00,2013-03-09 16:55:00,
2013-03-09 12:00:00,49.8,30.1,30.26,WNW,295,5.0,7.5,46,0.00,,CLR,0.00,VWS V14.00,2013-03-09 17:00:00,
2013-03-09 12:05:00,49.5,30.2,30.26,WSW,255,0.0,7.3,47,0.00,,CLR,0.00,VWS V14.00,2013-03-09 17:05:00,
2013-03-09 12:10:00,48.4,28.9,30.25,North,359,4.6,7.3,47,0.00,,CLR,0.00,VWS V14.00,2013-03-09 17:10:00,
2013-03-09 12:15:00,49.9,29.9,30.25,ENE,75,0.0,9.2,46,0.00,,CLR,0.00,VWS V14.00,2013-03-09 17:15:00,
2013-03-09 12:20:00,49.4,29.3,30.25,North,6,0.0,5.9,46,0.00,,CLR,0.00,VWS V14.00,2013-03-09 17:20:00,
2013-03-09 12:25:00,50.9,30.2,30.25,SE,136,0.0,6.5,45,0.00,,CLR,0.00,VWS V14.00,2013-03-09 17:25:00,
2013-03-09 12:30:00,50.2,29.3,30.25,NNE,14,4.5,6.5,44,0.00,,CLR,0.00,VWS V14.00,2013-03-09 17:30:00,
2013-03-09 12:35:00,51.5,30.5,30.25,ESE,118,0.0,8.0,44,0.00,,CLR,0.00,VWS V14.00,2013-03-09 17:35:00,
2013-03-09 12:40:00,51.6,30.8,30.25,NNE,25,0.0,8.0,45,0.00,,CLR,0.00,VWS V14.00,2013-03-09 17:40:00,
2013-03-09 12:45:00,51.2,30.4,30.25,West,273,0.0,8.0,45,0.00,,CLR,0.00,VWS V14.00,2013-03-09 17:45:00,
2013-03-09 12:50:00,51.2,30.7,30.24,NE,42,3.2,5.4,45,0.00,,CLR,0.00,VWS V14.00,2013-03-09 17:50:00,
2013-03-09 12:55:00,52.3,31.2,30.24,NW,316,0.0,6.1,44,0.00,,CLR,0.00,VWS V14.00,2013-03-09 17:55:00,
2013-03-09 13:00:00,52.9,31.7,30.24,WNW,301,0.0,6.1,44,0.00,,CLR,0.00,VWS V14.00,2013-03-09 18:00:00,
2013-03-09 13:05:00,52.7,31.0,30.23,NE,38,0.0,7.5,43,0.00,,CLR,0.00,VWS V14.00,2013-03-09 18:05:00,
2013-03-09 13:10:00,53.1,31.3,30.23,North,356,3.1,7.5,43,0.00,,CLR,0.00,VWS V14.00,2013-03-09 18:10:00,
2013-03-09 13:15:00,53.0,30.7,30.23,SE,138,4.2,8.0,42,0.00,,CLR,0.00,VWS V14.00,2013-03-09 18:15:00,
2013-03-09 13:20:00,53.2,31.4,30.23,SE,135,5.8,6.6,43,0.00,,CLR,0.00,VWS V14.00,2013-03-09 18:20:00,
2013-03-09 13:25:00,52.7,30.3,30.23,SE,132,5.0,8.5,42,0.00,,CLR,0.00,VWS V14.00,2013-03-09 18:25:00,
2013-03-09 13:30:00,53.8,30.9,30.23,SSE,149,0.0,8.5,41,0.00,,CLR,0.00,VWS V14.00,2013-03-09 18:30:00,
2013-03-09 13:35:00,53.2,30.3,30.23,SE,124,3.4,6.4,41,0.00,,CLR,0.00,VWS V14.00,2013-03-09 18:35:00,
2013-03-09 13:40:00,53.1,30.4,30.22,SE,146,0.0,6.8,42,0.00,,CLR,0.00,VWS V14.00,2013-03-09 18:40:00,
2013-03-09 13:45:00,54.0,31.1,30.22,East,93,3.2,7.1,41,0.00,,CLR,0.00,VWS V14.00,2013-03-09 18:45:00,
2013-03-09 13:50:00,53.8,31.0,30.22,North,7,0.0,4.7,42,0.00,,CLR,0.00,VWS V14.00,2013-03-09 18:50:00,
2013-03-09 13:55:00,54.1,31.1,30.21,NE,38,2.9,6.5,41,0.00,,CLR,0.00,VWS V14.00,2013-03-09 18:55:00,
2013-03-09 14:00:00,55.7,32.4,30.21,NE,53,0.0,8.6,41,0.00,,CLR,0.00,VWS V14.00,2013-03-09 19:00:00,
2013-03-09 14:05:00,55.0,32.0,30.21,NNW,335,3.1,5.0,41,0.00,,CLR,0.00,VWS V14.00,2013-03-09 19:05:00,
2013-03-09 14:10:00,55.2,32.0,30.21,NNE,25,5.8,8.7,41,0.00,,CLR,0.00,VWS V14.00,2013-03-09 19:10:00,
2013-03-09 14:15:00,55.6,32.8,30.21,North,4,0.0,8.7,42,0.00,,CLR,0.00,VWS V14.00,2013-03-09 19:15:00,
2013-03-09 14:20:00,55.1,31.8,30.20,West,267,0.0,7.3,41,0.00,,CLR,0.00,VWS V14.00,2013-03-09 19:20:00,
2013-03-09 14:25:00,56.1,32.2,30.20,East,91,3.3,7.3,40,0.00,,CLR,0.00,VWS V14.00,2013-03-09 19:25:00,
2013-03-09 14:30:00,55.9,32.1,30.20,NNE,25,2.6,9.6,40,0.00,,CLR,0.00,VWS V14.00,2013-03-09 19:30:00,
2013-03-09 14:35:00,55.6,31.8,30.20,North,4,3.1,9.9,40,0.00,,CLR,0.00,VWS V14.00,2013-03-09 19:35:00,
2013-03-09 14:40:00,56.5,32.9,30.20,NW,323,3.5,9.9,41,0.00,,CLR,0.00,VWS V14.00,2013-03-09 19:40:00,
2013-03-09 14:45:00,56.0,32.5,30.20,North,349,4.4,9.9,41,0.00,,CLR,0.00,VWS V14.00,2013-03-09 19:45:00,
2013-03-09 14:50:00,56.2,33.3,30.20,NNW,345,0.0,5.2,42,0.00,,CLR,0.00,VWS V14.00,2013-03-09 19:50:00,
2013-03-09 14:55:00,56.8,32.9,30.20,NNW,345,0.0,5.2,40,0.00,,CLR,0.00,VWS V14.00,2013-03-09 19:55:00,
2013-03-09 15:00:00,57.0,32.8,30.20,North,359,5.5,8.6,40,0.00,,CLR,0.00,VWS V14.00,2013-03-09 20:00:00,
2013-03-09 15:05:00,56.9,32.7,30.19,SE,127,4.9,6.9,40,0.00,,CLR,0.00,VWS V14.00,2013-03-09 20:05:00,
2013-03-09 15:10:00,56.2,32.2,30.19,NE,37,0.0,7.5,40,0.00,,CLR,0.00,VWS V14.00,2013-03-09 20:10:00,
2013-03-09 15:15:00,57.0,33.1,30.19,North,6,0.0,7.5,40,0.00,,CLR,0.00,VWS V14.00,2013-03-09 20:15:00,
2013-03-09 15:20:00,57.4,32.7,30.19,East,101,0.0,4.9,39,0.00,,CLR,0.00,VWS V14.00,2013-03-09 20:20:00,
2013-03-09 15:25:00,56.6,32.2,30.19,WSW,242,0.0,4.9,39,0.00,,CLR,0.00,VWS V14.00,2013-03-09 20:25:00,
2013-03-09 15:30:00,56.6,32.0,30.19,NNE,28,0.0,7.0,39,0.00,,CLR,0.00,VWS V14.00,2013-03-09 20:30:00,
2013-03-09 15:35:00,55.5,30.9,30.19,WSW,242,0.0,6.0,39,0.00,,CLR,0.00,VWS V14.00,2013-03-09 20:35:00,
2013-03-09 15:40:00,55.3,31.0,30.19,North,354,2.2,7.6,39,0.00,,CLR,0.00,VWS V14.00,2013-03-09 20:40:00,
2013-03-09 15:45:00,54.7,30.9,30.19,NNE,20,0.0,8.1,40,0.00,,CLR,0.00,VWS V14.00,2013-03-09 20:45:00,
2013-03-09 15:50:00,54.6,30.1,30.18,NNW,342,4.8,6.0,39,0.00,,CLR,0.00,VWS V14.00,2013-03-09 20:50:00,
2013-03-09 15:55:00,54.5,29.9,30.18,NNE,17,0.0,6.5,39,0.00,,CLR,0.00,VWS V14.00,2013-03-09 20:55:00,
2013-03-09 16:00:00,58.1,33.2,30.18,NNE,17,0.0,6.5,39,0.00,,CLR,0.00,VWS V14.00,2013-03-09 21:00:00,
2013-03-09 16:05:00,58.7,33.2,30.18,SW,225,0.0,3.5,38,0.00,,CLR,0.00,VWS V14.00,2013-03-09 21:05:00,
2013-03-09 16:10:00,59.5,34.1,30.18,NNE,22,0.0,3.5,38,0.00,,CLR,0.00,VWS V14.00,2013-03-09 21:10:00,
2013-03-09 16:15:00,58.2,33.4,30.18,North,353,7.3,7.3,39,0.00,,CLR,0.00,VWS V14.00,2013-03-09 21:15:00,
2013-03-09 16:20:00,59.6,34.4,30.18,NNE,22,0.0,9.5,39,0.00,,CLR,0.00,VWS V14.00,2013-03-09 21:20:00,
2013-03-09 16:25:00,60.4,35.2,30.18,SE,135,6.0,9.5,39,0.00,,CLR,0.00,VWS V14.00,2013-03-09 21:25:00,
2013-03-09 16:30:00,60.3,34.6,30.18,SE,127,0.0,9.5,38,0.00,,CLR,0.00,VWS V14.00,2013-03-09 21:30:00,
2013-03-09 16:35:00,59.5,34.0,30.18,NNE,13,2.9,6.2,38,0.00,,CLR,0.00,VWS V14.00,2013-03-09 21:35:00,
2013-03-09 16:40:00,60.1,34.2,30.18,NE,35,0.0,6.2,38,0.00,,CLR,0.00,VWS V14.00,2013-03-09 21:40:00,
2013-03-09 16:45:00,59.7,33.9,30.18,North,6,0.0,6.2,38,0.00,,CLR,0.00,VWS V14.00,2013-03-09 21:45:00,
2013-03-09 16:50:00,59.5,33.8,30.18,North,6,0.0,0.0,38,0.00,,CLR,0.00,VWS V14.00,2013-03-09 21:50:00,
2013-03-09 16:55:00,59.1,33.4,30.18,NW,323,4.3,5.9,38,0.00,,CLR,0.00,VWS V14.00,2013-03-09 21:55:00,
2013-03-09 17:00:00,59.6,34.4,30.18,NNW,346,0.0,0.0,39,0.00,,CLR,0.00,VWS V14.00,2013-03-09 22:00:00,
2013-03-09 17:05:00,59.3,34.2,30.18,NE,49,5.0,6.7,39,0.00,,CLR,0.00,VWS V14.00,2013-03-09 22:05:00,
2013-03-09 17:10:00,59.0,33.6,30.18,NNE,18,0.0,6.7,38,0.00,,CLR,0.00,VWS V14.00,2013-03-09 22:10:00,
2013-03-09 17:15:00,59.5,34.3,30.18,NNE,18,0.0,0.0,39,0.00,,CLR,0.00,VWS V14.00,2013-03-09 22:15:00,
2013-03-09 17:20:00,59.4,34.1,30.18,NNE,18,0.0,0.0,38,0.00,,CLR,0.00,VWS V14.00,2013-03-09 22:20:00,
2013-03-09 17:25:00,59.4,34.1,30.18,NNE,18,0.0,0.0,38,0.00,,CLR,0.00,VWS V14.00,2013-03-09 22:25:00,
2013-03-09 17:30:00,58.7,33.3,30.18,NNE,18,0.0,0.0,38,0.00,,CLR,0.00,VWS V14.00,2013-03-09 22:30:00,
2013-03-09 17:35:00,58.0,33.0,30.18,NNE,18,0.0,0.0,39,0.00,,CLR,0.00,VWS V14.00,2013-03-09 22:35:00,
2013-03-09 17:40:00,56.2,31.4,30.18,NNE,18,0.0,0.0,39,0.00,,CLR,0.00,VWS V14.00,2013-03-09 22:40:00,
2013-03-09 17:45:00,56.2,31.0,30.18,NNE,18,0.0,0.0,38,0.00,,CLR,0.00,VWS V14.00,2013-03-09 22:45:00,
2013-03-09 17:50:00,56.6,31.0,30.18,NNE,18,0.0,0.0,38,0.00,,CLR,0.00,VWS V14.00,2013-03-09 22:50:00,
2013-03-09 17:56:00,53.1,28.7,30.19,NNE,18,0.0,0.0,39,0.00,,CLR,0.00,VWS V14.00,2013-03-09 22:56:00,
2013-03-09 18:01:00,53.5,29.3,30.19,NNE,18,0.0,0.0,39,0.00,,CLR,0.00,VWS V14.00,2013-03-09 23:01:00,
2013-03-09 18:06:00,51.7,28.0,30.19,NNE,18,0.0,0.0,40,0.00,,CLR,0.00,VWS V14.00,2013-03-09 23:06:00,
2013-03-09 18:11:00,55.5,31.8,30.19,NNE,18,0.0,0.0,40,0.00,,CLR,0.00,VWS V14.00,2013-03-09 23:11:00,
2013-03-09 18:16:00,54.3,31.1,30.19,NNE,18,0.0,0.0,41,0.00,,CLR,0.00,VWS V14.00,2013-03-09 23:16:00,
2013-03-09 18:21:00,52.6,29.6,30.19,NNE,18,0.0,0.0,41,0.00,,CLR,0.00,VWS V14.00,2013-03-09 23:21:00,
2013-03-09 18:26:00,53.2,30.2,30.19,NNE,18,0.0,0.0,41,0.00,,CLR,0.00,VWS V14.00,2013-03-09 23:26:00,
2013-03-09 18:31:00,52.3,30.0,30.19,NNE,18,0.0,0.0,42,0.00,,CLR,0.00,VWS V14.00,2013-03-09 23:31:00,
2013-03-09 18:36:00,52.9,30.8,30.19,NNE,18,0.0,0.0,43,0.00,,CLR,0.00,VWS V14.00,2013-03-09 23:36:00,
2013-03-09 18:41:00,51.8,29.9,30.20,NNE,18,0.0,0.0,43,0.00,,CLR,0.00,VWS V14.00,2013-03-09 23:41:00,
2013-03-09 18:46:00,52.3,30.8,30.19,NNE,18,0.0,0.0,44,0.00,,CLR,0.00,VWS V14.00,2013-03-09 23:46:00,
2013-03-09 18:51:00,51.6,30.6,30.19,NNE,18,0.0,0.0,44,0.00,,CLR,0.00,VWS V14.00,2013-03-09 23:51:00,
2013-03-09 18:56:00,51.3,30.8,30.20,NNE,18,0.0,0.0,45,0.00,,CLR,0.00,VWS V14.00,2013-03-09 23:56:00,
2013-03-09 19:01:00,51.0,30.5,30.19,NNE,18,0.0,0.0,45,0.00,,CLR,0.00,VWS V14.00,2013-03-10 00:01:00,
2013-03-09 19:06:00,50.8,30.5,30.20,NNE,18,0.0,0.0,45,0.00,,CLR,0.00,VWS V14.00,2013-03-10 00:06:00,
2013-03-09 19:11:00,50.9,30.7,30.20,NNE,18,0.0,0.0,46,0.00,,CLR,0.00,VWS V14.00,2013-03-10 00:11:00,
2013-03-09 19:16:00,44.3,24.8,30.20,NNE,18,0.0,0.0,46,0.00,,CLR,0.00,VWS V14.00,2013-03-10 00:16:00,
2013-03-09 19:21:00,51.2,31.3,30.20,NNE,18,0.0,0.0,46,0.00,,CLR,0.00,VWS V14.00,2013-03-10 00:21:00,
2013-03-09 19:26:00,51.0,31.3,30.20,NNE,18,0.0,0.0,47,0.00,,CLR,0.00,VWS V14.00,2013-03-10 00:26:00,
2013-03-09 19:31:00,51.4,31.8,30.20,NNE,18,0.0,0.0,47,0.00,,CLR,0.00,VWS V14.00,2013-03-10 00:31:00,
2013-03-09 19:36:00,50.8,31.5,30.20,NNE,18,0.0,0.0,47,0.00,,CLR,0.00,VWS V14.00,2013-03-10 00:36:00,
2013-03-09 19:41:00,50.6,31.6,30.20,NNE,18,0.0,0.0,48,0.00,,CLR,0.00,VWS V14.00,2013-03-10 00:41:00,
2013-03-09 19:46:00,49.8,31.1,30.20,NNE,18,0.0,0.0,48,0.00,,CLR,0.00,VWS V14.00,2013-03-10 00:46:00,
2013-03-09 19:51:00,49.4,30.9,30.20,NNE,18,0.0,0.0,49,0.00,,CLR,0.00,VWS V14.00,2013-03-10 00:51:00,
2013-03-09 19:56:00,49.4,31.1,30.20,NNE,18,0.0,0.0,49,0.00,,CLR,0.00,VWS V14.00,2013-03-10 00:56:00,
2013-03-09 20:01:00,49.4,31.3,30.20,NNE,18,0.0,0.0,50,0.00,,CLR,0.00,VWS V14.00,2013-03-10 01:01:00,
2013-03-09 20:06:00,49.4,31.5,30.20,NNE,18,0.0,0.0,50,0.00,,CLR,0.00,VWS V14.00,2013-03-10 01:06:00,
2013-03-09 20:11:00,49.3,31.6,30.20,NNE,18,0.0,0.0,50,0.00,,CLR,0.00,VWS V14.00,2013-03-10 01:11:00,
2013-03-09 20:16:00,49.1,31.7,30.20,NNE,18,0.0,0.0,51,0.00,,CLR,0.00,VWS V14.00,2013-03-10 01:16:00,
2013-03-09 20:21:00,48.9,31.8,30.20,NNE,18,0.0,0.0,51,0.00,,CLR,0.00,VWS V14.00,2013-03-10 01:21:00,
2013-03-09 20:26:00,48.7,31.8,30.20,NNE,18,0.0,0.0,52,0.00,,CLR,0.00,VWS V14.00,2013-03-10 01:26:00,
2013-03-09 20:31:00,48.6,31.9,30.20,NNE,18,0.0,0.0,52,0.00,,CLR,0.00,VWS V14.00,2013-03-10 01:31:00,
2013-03-09 20:36:00,48.6,32.0,30.20,NNE,18,0.0,0.0,52,0.00,,CLR,0.00,VWS V14.00,2013-03-10 01:36:00,
2013-03-09 20:41:00,48.6,32.2,30.20,NNE,18,0.0,0.0,53,0.00,,CLR,0.00,VWS V14.00,2013-03-10 01:41:00,
2013-03-09 20:46:00,48.4,32.4,30.20,NNE,18,0.0,0.0,54,0.00,,CLR,0.00,VWS V14.00,2013-03-10 01:46:00,
2013-03-09 20:51:00,48.4,33.0,30.20,NNE,18,0.0,0.0,55,0.00,,CLR,0.00,VWS V14.00,2013-03-10 01:51:00,
2013-03-09 20:56:00,48.3,33.3,30.20,NNE,18,0.0,0.0,56,0.00,,CLR,0.00,VWS V14.00,2013-03-10 01:56:00,
2013-03-09 21:01:00,48.1,33.3,30.20,NNE,18,0.0,0.0,56,0.00,,CLR,0.00,VWS V14.00,2013-03-10 02:01:00,
2013-03-09 21:06:00,47.7,33.1,30.21,NNE,18,0.0,0.0,57,0.00,,CLR,0.00,VWS V14.00,2013-03-10 02:06:00,
2013-03-09 21:11:00,47.2,32.8,30.21,NNE,18,0.0,0.0,57,0.00,,CLR,0.00,VWS V14.00,2013-03-10 02:11:00,
2013-03-09 21:16:00,47.1,32.8,30.21,NNE,18,0.0,0.0,57,0.00,,CLR,0.00,VWS V14.00,2013-03-10 02:16:00,
2013-03-09 21:21:00,46.9,32.5,30.21,NNE,18,0.0,0.0,57,0.00,,CLR,0.00,VWS V14.00,2013-03-10 02:21:00,
2013-03-09 21:26:00,46.7,32.5,30.21,NNE,18,0.0,0.0,57,0.00,,CLR,0.00,VWS V14.00,2013-03-10 02:26:00,
2013-03-09 21:31:00,46.9,32.4,30.21,NNE,18,0.0,0.0,57,0.00,,CLR,0.00,VWS V14.00,2013-03-10 02:31:00,
2013-03-09 21:36:00,47.0,32.0,30.21,NNE,18,0.0,0.0,56,0.00,,CLR,0.00,VWS V14.00,2013-03-10 02:36:00,
2013-03-09 21:41:00,47.3,31.8,30.21,NNE,18,0.0,0.0,55,0.00,,CLR,0.00,VWS V14.00,2013-03-10 02:41:00,
2013-03-09 21:46:00,47.5,31.9,30.21,NNE,18,0.0,0.0,54,0.00,,CLR,0.00,VWS V14.00,2013-03-10 02:46:00,
2013-03-09 21:51:00,47.6,32.1,30.21,NNE,18,0.0,0.0,55,0.00,,CLR,0.00,VWS V14.00,2013-03-10 02:51:00,
2013-03-09 21:56:00,47.3,31.9,30.22,NNE,18,0.0,0.0,55,0.00,,CLR,0.00,VWS V14.00,2013-03-10 02:56:00,
2013-03-09 22:01:00,47.0,31.9,30.22,NNE,18,0.0,0.0,55,0.00,,CLR,0.00,VWS V14.00,2013-03-10 03:01:00,
2013-03-09 22:06:00,46.7,31.8,30.22,NNE,18,0.0,0.0,56,0.00,,CLR,0.00,VWS V14.00,2013-03-10 03:06:00,
2013-03-09 22:11:00,46.4,31.6,30.22,NNE,18,0.0,0.0,56,0.00,,CLR,0.00,VWS V14.00,2013-03-10 03:11:00,
2013-03-09 22:16:00,46.5,31.7,30.22,NNE,18,0.0,0.0,56,0.00,,CLR,0.00,VWS V14.00,2013-03-10 03:16:00,
2013-03-09 22:21:00,47.4,32.3,30.22,NNE,18,0.0,0.0,56,0.00,,CLR,0.00,VWS V14.00,2013-03-10 03:21:00,
2013-03-09 22:26:00,47.2,32.0,30.22,NNE,18,0.0,0.0,55,0.00,,CLR,0.00,VWS V14.00,2013-03-10 03:26:00,
2013-03-09 22:31:00,47.0,31.9,30.22,NNE,18,0.0,0.0,56,0.00,,CLR,0.00,VWS V14.00,2013-03-10 03:31:00,
2013-03-09 22:36:00,46.9,31.8,30.22,NNE,18,0.0,0.0,56,0.00,,CLR,0.00,VWS V14.00,2013-03-10 03:36:00,
2013-03-09 22:41:00,46.6,31.7,30.22,NNE,18,0.0,0.0,56,0.00,,CLR,0.00,VWS V14.00,2013-03-10 03:41:00,
2013-03-09 22:46:00,46.4,31.9,30.22,NNE,18,0.0,0.0,57,0.00,,CLR,0.00,VWS V14.00,2013-03-10 03:46:00,
2013-03-09 22:51:00,46.2,31.8,30.22,NNE,18,0.0,0.0,57,0.00,,CLR,0.00,VWS V14.00,2013-03-10 03:51:00,
2013-03-09 22:56:00,46.3,31.6,30.22,NNE,18,0.0,0.0,56,0.00,,CLR,0.00,VWS V14.00,2013-03-10 03:56:00,
2013-03-09 23:01:00,46.2,31.2,30.22,NNE,18,0.0,0.0,56,0.00,,CLR,0.00,VWS V14.00,2013-03-10 04:01:00,
2013-03-09 23:06:00,46.2,31.2,30.22,NNE,18,0.0,0.0,56,0.00,,CLR,0.00,VWS V14.00,2013-03-10 04:06:00,
2013-03-09 23:11:00,46.1,31.2,30.22,NNE,18,0.0,0.0,56,0.00,,CLR,0.00,VWS V14.00,2013-03-10 04:11:00,
2013-03-09 23:16:00,46.0,31.1,30.22,NNE,18,0.0,0.0,56,0.00,,CLR,0.00,VWS V14.00,2013-03-10 04:16:00,
2013-03-09 23:21:00,45.9,31.1,30.22,NNE,18,0.0,0.0,56,0.00,,CLR,0.00,VWS V14.00,2013-03-10 04:21:00,
2013-03-09 23:26:00,45.9,31.1,30.22,NNE,18,0.0,0.0,56,0.00,,CLR,0.00,VWS V14.00,2013-03-10 04:26:00,
2013-03-09 23:31:00,45.7,30.9,30.22,NNE,18,0.0,0.0,56,0.00,,CLR,0.00,VWS V14.00,2013-03-10 04:31:00,
2013-03-09 23:36:00,46.7,31.8,30.22,NNE,18,0.0,0.0,56,0.00,,CLR,0.00,VWS V14.00,2013-03-10 04:36:00,
2013-03-09 23:41:00,46.5,31.6,30.22,NNE,18,0.0,0.0,56,0.00,,CLR,0.00,VWS V14.00,2013-03-10 04:41:00,
2013-03-09 23:46:00,46.3,31.4,30.22,NNE,18,0.0,0.0,56,0.00,,CLR,0.00,VWS V14.00,2013-03-10 04:46:00,
2013-03-09 23:51:00,45.9,31.2,30.22,NNE,18,0.0,0.0,56,0.00,,CLR,0.00,VWS V14.00,2013-03-10 04:51:00,
2013-03-09 23:56:00,45.3,30.9,30.22,NNE,18,0.0,0.0,57,0.00,,CLR,0.00,VWS V14.00,2013-03-10 04:56:00,